KLM71V EHAM-LSGG
Flight info
| Callsign | KLM71V |
|---|---|
| Flight time | 1h 9m |
| Altitude | 35000 |
| Route | LOPIK N852 SUTAL DCT GTQ DCT POGOL DCT LASAT DCT MOROK Z24 AKITO |
| Aircraft | B738/M-SDE2E3FGHIRWXY/LB1 |
Departure
| Time | 2026-04-18 10:34 |
|---|---|
| Airport | Amsterdam Airport Schiphol (EHAM) |
Arrival
| Time | 2026-04-18 11:43 |
|---|---|
| Airport | Geneva International Airport (LSGG) |
| Time | Latitude | Longitude | Altitude | Speed | Heading |
|---|---|---|---|---|---|
| 2026-04-18 09:40 | 52.30895 | 4.77367 | -2 ft | 0 kts | 3° |
| 2026-04-18 10:24 | 52.30885 | 4.77366 | -2 ft | 4 kts | 358° |
| 2026-04-18 10:25 | 52.30858 | 4.77370 | -2 ft | 4 kts | 3° |
| 2026-04-18 10:25 | 52.30845 | 4.77359 | -2 ft | 4 kts | 66° |
| 2026-04-18 10:25 | 52.30842 | 4.77337 | -2 ft | 0 kts | 79° |
| 2026-04-18 10:29 | 52.30842 | 4.77338 | -2 ft | 0 kts | 79° |
| 2026-04-18 10:29 | 52.30842 | 4.77344 | -2 ft | 1 kts | 80° |
| 2026-04-18 10:29 | 52.30842 | 4.77358 | -2 ft | 0 kts | 94° |
| 2026-04-18 10:30 | 52.30842 | 4.77361 | -2 ft | 1 kts | 95° |
| 2026-04-18 10:30 | 52.30838 | 4.77387 | -2 ft | 4 kts | 101° |
| 2026-04-18 10:30 | 52.30831 | 4.77440 | -2 ft | 6 kts | 121° |
| 2026-04-18 10:30 | 52.30789 | 4.77463 | -2 ft | 8 kts | 175° |
| 2026-04-18 10:31 | 52.30726 | 4.77458 | -2 ft | 10 kts | 183° |
| 2026-04-18 10:31 | 52.30649 | 4.77477 | -2 ft | 12 kts | 156° |
| 2026-04-18 10:31 | 52.30564 | 4.77546 | -2 ft | 15 kts | 153° |
| 2026-04-18 10:31 | 52.30475 | 4.77623 | -2 ft | 11 kts | 151° |
| 2026-04-18 10:32 | 52.30416 | 4.77634 | -1 ft | 9 kts | 217° |
| 2026-04-18 10:32 | 52.30396 | 4.77592 | -2 ft | 0 kts | 238° |
| 2026-04-18 10:33 | 52.30357 | 4.77489 | -3 ft | 28 kts | 238° |
| 2026-04-18 10:33 | 52.30151 | 4.76955 | -4 ft | 89 kts | 238° |
| 2026-04-18 10:33 | 52.29703 | 4.75786 | 3 ft | 151 kts | 238° |
| 2026-04-18 10:33 | 52.29109 | 4.74229 | 511 ft | 171 kts | 237° |
| 2026-04-18 10:34 | 52.28464 | 4.72576 | 1473 ft | 172 kts | 238° |
| 2026-04-18 10:34 | 52.27811 | 4.70887 | 2435 ft | 179 kts | 238° |
| 2026-04-18 10:34 | 52.27110 | 4.69072 | 3211 ft | 196 kts | 238° |
| 2026-04-18 10:34 | 52.26269 | 4.67212 | 4077 ft | 210 kts | 223° |
| 2026-04-18 10:35 | 52.24917 | 4.66335 | 5166 ft | 218 kts | 184° |
| 2026-04-18 10:35 | 52.23457 | 4.67138 | 6193 ft | 233 kts | 144° |
| 2026-04-18 10:35 | 52.22531 | 4.69349 | 7210 ft | 245 kts | 112° |
| 2026-04-18 10:35 | 52.22119 | 4.72094 | 8165 ft | 253 kts | 106° |
| 2026-04-18 10:36 | 52.21548 | 4.74837 | 9074 ft | 258 kts | 117° |
| 2026-04-18 10:36 | 52.20729 | 4.77469 | 10033 ft | 261 kts | 124° |
| 2026-04-18 10:36 | 52.19766 | 4.80010 | 10934 ft | 268 kts | 127° |
| 2026-04-18 10:36 | 52.18734 | 4.82675 | 11507 ft | 287 kts | 126° |
| 2026-04-18 10:37 | 52.17688 | 4.85521 | 12040 ft | 306 kts | 124° |
| 2026-04-18 10:37 | 52.16605 | 4.88615 | 12606 ft | 323 kts | 123° |
| 2026-04-18 10:37 | 52.15332 | 4.91725 | 13109 ft | 336 kts | 137° |
| 2026-04-18 10:37 | 52.13435 | 4.93949 | 13681 ft | 341 kts | 158° |
| 2026-04-18 10:38 | 52.11265 | 4.95637 | 14380 ft | 351 kts | 157° |
| 2026-04-18 10:38 | 52.09116 | 4.97603 | 15233 ft | 357 kts | 153° |
| 2026-04-18 10:38 | 52.06988 | 4.99756 | 16065 ft | 362 kts | 152° |
| 2026-04-18 10:38 | 52.04839 | 5.01924 | 16892 ft | 366 kts | 153° |
| 2026-04-18 10:39 | 52.02636 | 5.04039 | 17714 ft | 370 kts | 155° |
| 2026-04-18 10:39 | 52.00389 | 5.06111 | 18503 ft | 373 kts | 155° |
| 2026-04-18 10:39 | 51.98113 | 5.08194 | 19266 ft | 378 kts | 155° |
| 2026-04-18 10:39 | 51.95810 | 5.10329 | 19940 ft | 384 kts | 155° |
| 2026-04-18 10:40 | 51.93474 | 5.12479 | 20632 ft | 387 kts | 158° |
| 2026-04-18 10:40 | 51.91002 | 5.13950 | 21327 ft | 382 kts | 171° |
| 2026-04-18 10:40 | 51.88367 | 5.14963 | 21981 ft | 387 kts | 171° |
| 2026-04-18 10:40 | 51.85778 | 5.16064 | 22635 ft | 391 kts | 170° |
| 2026-04-18 10:41 | 51.83148 | 5.17274 | 23281 ft | 395 kts | 169° |
| 2026-04-18 10:41 | 51.80498 | 5.18507 | 23897 ft | 398 kts | 169° |
| 2026-04-18 10:41 | 51.77823 | 5.19716 | 24480 ft | 401 kts | 170° |
| 2026-04-18 10:41 | 51.75120 | 5.20899 | 25030 ft | 404 kts | 171° |
| 2026-04-18 10:42 | 51.72397 | 5.22078 | 25536 ft | 407 kts | 171° |
| 2026-04-18 10:42 | 51.69648 | 5.23277 | 26031 ft | 411 kts | 171° |
| 2026-04-18 10:42 | 51.66875 | 5.24499 | 26511 ft | 414 kts | 171° |
| 2026-04-18 10:42 | 51.64086 | 5.25734 | 26971 ft | 417 kts | 171° |
| 2026-04-18 10:43 | 51.61277 | 5.26973 | 27419 ft | 420 kts | 171° |
| 2026-04-18 10:43 | 51.58447 | 5.28215 | 27836 ft | 423 kts | 171° |
| 2026-04-18 10:43 | 51.55600 | 5.29457 | 28249 ft | 425 kts | 171° |
| 2026-04-18 10:43 | 51.52734 | 5.30707 | 28640 ft | 428 kts | 171° |
| 2026-04-18 10:44 | 51.49849 | 5.31967 | 29000 ft | 431 kts | 171° |
| 2026-04-18 10:44 | 51.46943 | 5.33234 | 29351 ft | 434 kts | 171° |
| 2026-04-18 10:44 | 51.44030 | 5.34504 | 29726 ft | 436 kts | 171° |
| 2026-04-18 10:44 | 51.41094 | 5.35782 | 30063 ft | 438 kts | 171° |
| 2026-04-18 10:45 | 51.38148 | 5.37062 | 30401 ft | 440 kts | 171° |
| 2026-04-18 10:45 | 51.35201 | 5.38347 | 30901 ft | 437 kts | 171° |
| 2026-04-18 10:45 | 51.32274 | 5.39627 | 31364 ft | 435 kts | 171° |
| 2026-04-18 10:45 | 51.29395 | 5.40882 | 31823 ft | 433 kts | 171° |
| 2026-04-18 10:46 | 51.26488 | 5.42142 | 32275 ft | 431 kts | 172° |
| 2026-04-18 10:46 | 51.23585 | 5.43276 | 32696 ft | 428 kts | 174° |
| 2026-04-18 10:46 | 51.20682 | 5.44208 | 33124 ft | 425 kts | 175° |
| 2026-04-18 10:46 | 51.17779 | 5.45067 | 33546 ft | 423 kts | 175° |
| 2026-04-18 10:47 | 51.14902 | 5.46115 | 33946 ft | 425 kts | 171° |
| 2026-04-18 10:47 | 51.12061 | 5.47421 | 34355 ft | 425 kts | 169° |
| 2026-04-18 10:47 | 51.09231 | 5.48823 | 34736 ft | 424 kts | 169° |
| 2026-04-18 10:47 | 51.06404 | 5.50153 | 35064 ft | 423 kts | 170° |
| 2026-04-18 10:48 | 51.03555 | 5.51384 | 35210 ft | 427 kts | 171° |
| 2026-04-18 10:48 | 50.97781 | 5.53784 | 35227 ft | 429 kts | 171° |
| 2026-04-18 10:49 | 50.91991 | 5.56317 | 35232 ft | 436 kts | 170° |
| 2026-04-18 10:49 | 50.86092 | 5.58887 | 35233 ft | 443 kts | 171° |
| 2026-04-18 10:50 | 50.80118 | 5.61451 | 35228 ft | 446 kts | 171° |
| 2026-04-18 10:50 | 50.74138 | 5.64029 | 35224 ft | 444 kts | 170° |
| 2026-04-18 10:51 | 50.68180 | 5.66588 | 35222 ft | 443 kts | 170° |
| 2026-04-18 10:51 | 50.62250 | 5.69280 | 35223 ft | 444 kts | 169° |
| 2026-04-18 10:52 | 50.56384 | 5.72157 | 35231 ft | 447 kts | 166° |
| 2026-04-18 10:52 | 50.50563 | 5.75683 | 35234 ft | 449 kts | 163° |
| 2026-04-18 10:53 | 50.44737 | 5.79227 | 35225 ft | 448 kts | 165° |
| 2026-04-18 10:53 | 50.38872 | 5.82554 | 35229 ft | 448 kts | 165° |
| 2026-04-18 10:54 | 50.33019 | 5.85967 | 35225 ft | 449 kts | 165° |
| 2026-04-18 10:54 | 50.27177 | 5.89389 | 35218 ft | 448 kts | 165° |
| 2026-04-18 10:55 | 50.21326 | 5.92763 | 35218 ft | 449 kts | 165° |
| 2026-04-18 10:55 | 50.15456 | 5.96153 | 35221 ft | 450 kts | 165° |
| 2026-04-18 10:56 | 50.09590 | 5.99539 | 35216 ft | 449 kts | 165° |
| 2026-04-18 10:56 | 50.03727 | 6.02908 | 35223 ft | 449 kts | 165° |
| 2026-04-18 10:57 | 49.97902 | 6.06246 | 35236 ft | 450 kts | 165° |
| 2026-04-18 10:57 | 49.91996 | 6.09629 | 35224 ft | 449 kts | 165° |
| 2026-04-18 10:58 | 49.86170 | 6.12953 | 35227 ft | 449 kts | 165° |
| 2026-04-18 10:58 | 49.80381 | 6.16730 | 35224 ft | 453 kts | 160° |
| 2026-04-18 10:59 | 49.74657 | 6.20845 | 35226 ft | 453 kts | 161° |
| 2026-04-18 10:59 | 49.68878 | 6.24699 | 35224 ft | 453 kts | 162° |
| 2026-04-18 11:00 | 49.63091 | 6.28559 | 35232 ft | 453 kts | 161° |
| 2026-04-18 11:00 | 49.57293 | 6.32367 | 35230 ft | 453 kts | 162° |
| 2026-04-18 11:01 | 49.51456 | 6.36069 | 35225 ft | 454 kts | 162° |
| 2026-04-18 11:01 | 49.45620 | 6.39835 | 35233 ft | 455 kts | 162° |
| 2026-04-18 11:02 | 49.36916 | 6.45827 | 35224 ft | 458 kts | 160° |
| 2026-04-18 11:02 | 49.31092 | 6.49786 | 35223 ft | 458 kts | 161° |
| 2026-04-18 11:03 | 49.25241 | 6.53718 | 35220 ft | 459 kts | 161° |
| 2026-04-18 11:03 | 49.19400 | 6.57680 | 35225 ft | 460 kts | 160° |
| 2026-04-18 11:04 | 49.13542 | 6.61631 | 35212 ft | 460 kts | 161° |
| 2026-04-18 11:04 | 49.07683 | 6.65564 | 35212 ft | 460 kts | 160° |
| 2026-04-18 11:05 | 49.01810 | 6.69498 | 35219 ft | 462 kts | 161° |
| 2026-04-18 11:05 | 48.98788 | 6.71034 | 35213 ft | 455 kts | 173° |
| 2026-04-18 11:05 | 48.95680 | 6.71558 | 35232 ft | 447 kts | 184° |
| 2026-04-18 11:06 | 48.89467 | 6.71135 | 35224 ft | 448 kts | 185° |
| 2026-04-18 11:06 | 48.83228 | 6.71031 | 35212 ft | 449 kts | 185° |
| 2026-04-18 11:07 | 48.76990 | 6.70807 | 35213 ft | 448 kts | 186° |
| 2026-04-18 11:07 | 48.70753 | 6.70510 | 35211 ft | 449 kts | 185° |
| 2026-04-18 11:08 | 48.64497 | 6.70285 | 35208 ft | 450 kts | 185° |
| 2026-04-18 11:08 | 48.58235 | 6.70052 | 35208 ft | 449 kts | 185° |
| 2026-04-18 11:09 | 48.52019 | 6.69801 | 35212 ft | 450 kts | 185° |
| 2026-04-18 11:09 | 48.46781 | 6.69600 | 35215 ft | 450 kts | 185° |
| 2026-04-18 11:10 | 48.39501 | 6.69322 | 35211 ft | 450 kts | 185° |
| 2026-04-18 11:10 | 48.34256 | 6.69120 | 35210 ft | 450 kts | 185° |
| 2026-04-18 11:11 | 48.27991 | 6.68877 | 35213 ft | 451 kts | 185° |
| 2026-04-18 11:11 | 48.21723 | 6.68638 | 35211 ft | 450 kts | 185° |
| 2026-04-18 11:12 | 48.15453 | 6.68399 | 35216 ft | 450 kts | 185° |
| 2026-04-18 11:12 | 48.09189 | 6.68159 | 35221 ft | 450 kts | 185° |
| 2026-04-18 11:13 | 48.02924 | 6.67921 | 35213 ft | 451 kts | 185° |
| 2026-04-18 11:13 | 47.96612 | 6.67680 | 35218 ft | 456 kts | 185° |
| 2026-04-18 11:14 | 47.90231 | 6.67439 | 35218 ft | 460 kts | 185° |
| 2026-04-18 11:14 | 47.83822 | 6.67201 | 35203 ft | 460 kts | 185° |
| 2026-04-18 11:15 | 47.77438 | 6.66960 | 35204 ft | 460 kts | 185° |
| 2026-04-18 11:15 | 47.71039 | 6.66718 | 35202 ft | 460 kts | 185° |
| 2026-04-18 11:16 | 47.64641 | 6.66480 | 35201 ft | 460 kts | 185° |
| 2026-04-18 11:16 | 47.58285 | 6.66244 | 35202 ft | 459 kts | 185° |
| 2026-04-18 11:17 | 47.51892 | 6.66004 | 35199 ft | 460 kts | 185° |
| 2026-04-18 11:17 | 47.45474 | 6.65765 | 35200 ft | 461 kts | 185° |
| 2026-04-18 11:18 | 47.39065 | 6.65530 | 35201 ft | 461 kts | 185° |
| 2026-04-18 11:18 | 47.32649 | 6.65291 | 35207 ft | 460 kts | 185° |
| 2026-04-18 11:19 | 47.26324 | 6.65046 | 35206 ft | 451 kts | 187° |
| 2026-04-18 11:19 | 47.23255 | 6.64338 | 35216 ft | 443 kts | 199° |
| 2026-04-18 11:19 | 47.20412 | 6.62688 | 35225 ft | 438 kts | 211° |
| 2026-04-18 11:20 | 47.15654 | 6.57319 | 35238 ft | 430 kts | 226° |
| 2026-04-18 11:20 | 47.11213 | 6.51531 | 35117 ft | 420 kts | 223° |
| 2026-04-18 11:21 | 47.08984 | 6.48703 | 34022 ft | 425 kts | 224° |
| 2026-04-18 11:21 | 47.06765 | 6.45828 | 33101 ft | 425 kts | 224° |
| 2026-04-18 11:21 | 47.04576 | 6.42946 | 32367 ft | 421 kts | 225° |
| 2026-04-18 11:21 | 47.02419 | 6.40104 | 31801 ft | 412 kts | 225° |
| 2026-04-18 11:22 | 47.00300 | 6.37334 | 31248 ft | 404 kts | 225° |
| 2026-04-18 11:22 | 46.98242 | 6.34662 | 30717 ft | 397 kts | 224° |
| 2026-04-18 11:22 | 46.96189 | 6.32006 | 30184 ft | 390 kts | 225° |
| 2026-04-18 11:22 | 46.94170 | 6.29393 | 29662 ft | 385 kts | 225° |
| 2026-04-18 11:23 | 46.92165 | 6.26790 | 29136 ft | 386 kts | 225° |
| 2026-04-18 11:23 | 46.90153 | 6.24173 | 28591 ft | 388 kts | 225° |
| 2026-04-18 11:23 | 46.88133 | 6.21540 | 28027 ft | 389 kts | 225° |
| 2026-04-18 11:23 | 46.86110 | 6.18896 | 27450 ft | 390 kts | 225° |
| 2026-04-18 11:24 | 46.84080 | 6.16249 | 26884 ft | 392 kts | 225° |
| 2026-04-18 11:24 | 46.82047 | 6.13603 | 26303 ft | 393 kts | 225° |
| 2026-04-18 11:24 | 46.80001 | 6.10946 | 25717 ft | 394 kts | 224° |
| 2026-04-18 11:24 | 46.77953 | 6.08289 | 25116 ft | 394 kts | 225° |
| 2026-04-18 11:25 | 46.75909 | 6.05642 | 24519 ft | 393 kts | 225° |
| 2026-04-18 11:25 | 46.73867 | 6.02997 | 23910 ft | 392 kts | 224° |
| 2026-04-18 11:25 | 46.71827 | 6.00357 | 23300 ft | 392 kts | 224° |
| 2026-04-18 11:25 | 46.69788 | 5.97724 | 22690 ft | 391 kts | 224° |
| 2026-04-18 11:26 | 46.67759 | 5.95104 | 22068 ft | 390 kts | 224° |
| 2026-04-18 11:26 | 46.65732 | 5.92490 | 21447 ft | 388 kts | 224° |
| 2026-04-18 11:26 | 46.63709 | 5.89894 | 20792 ft | 387 kts | 224° |
| 2026-04-18 11:26 | 46.61704 | 5.87331 | 20116 ft | 380 kts | 224° |
| 2026-04-18 11:27 | 46.59703 | 5.84886 | 19571 ft | 372 kts | 218° |
| 2026-04-18 11:27 | 46.57405 | 5.83391 | 19464 ft | 358 kts | 193° |
| 2026-04-18 11:27 | 46.54960 | 5.83456 | 19132 ft | 353 kts | 168° |
| 2026-04-18 11:27 | 46.52803 | 5.84999 | 18679 ft | 350 kts | 145° |
| 2026-04-18 11:28 | 46.50923 | 5.87244 | 18009 ft | 350 kts | 140° |
| 2026-04-18 11:28 | 46.49082 | 5.89539 | 17383 ft | 348 kts | 142° |
| 2026-04-18 11:28 | 46.47156 | 5.91649 | 16752 ft | 345 kts | 146° |
| 2026-04-18 11:28 | 46.45165 | 5.93577 | 16122 ft | 343 kts | 148° |
| 2026-04-18 11:29 | 46.43167 | 5.95448 | 15492 ft | 340 kts | 148° |
| 2026-04-18 11:29 | 46.41209 | 5.97338 | 14869 ft | 337 kts | 147° |
| 2026-04-18 11:29 | 46.39288 | 5.99264 | 14272 ft | 334 kts | 146° |
| 2026-04-18 11:29 | 46.37398 | 6.01188 | 13645 ft | 330 kts | 145° |
| 2026-04-18 11:30 | 46.35449 | 6.02904 | 13011 ft | 326 kts | 158° |
| 2026-04-18 11:30 | 46.33255 | 6.03377 | 12393 ft | 318 kts | 188° |
| 2026-04-18 11:30 | 46.31241 | 6.02269 | 11808 ft | 308 kts | 219° |
| 2026-04-18 11:30 | 46.29786 | 6.00090 | 11286 ft | 297 kts | 235° |
| 2026-04-18 11:31 | 46.28607 | 5.97667 | 10755 ft | 292 kts | 237° |
| 2026-04-18 11:31 | 46.27403 | 5.95322 | 10241 ft | 290 kts | 230° |
| 2026-04-18 11:31 | 46.26010 | 5.93223 | 9746 ft | 290 kts | 224° |
| 2026-04-18 11:31 | 46.24546 | 5.91269 | 9221 ft | 290 kts | 223° |
| 2026-04-18 11:32 | 46.23070 | 5.89282 | 8688 ft | 289 kts | 224° |
| 2026-04-18 11:32 | 46.21674 | 5.87295 | 8486 ft | 276 kts | 226° |
| 2026-04-18 11:32 | 46.20328 | 5.85312 | 8339 ft | 280 kts | 226° |
| 2026-04-18 11:32 | 46.18967 | 5.83301 | 8227 ft | 280 kts | 226° |
| 2026-04-18 11:33 | 46.17589 | 5.81286 | 8191 ft | 282 kts | 226° |
| 2026-04-18 11:33 | 46.16213 | 5.79292 | 8221 ft | 279 kts | 225° |
| 2026-04-18 11:33 | 46.14838 | 5.77308 | 8230 ft | 280 kts | 225° |
| 2026-04-18 11:33 | 46.13465 | 5.75325 | 8206 ft | 279 kts | 225° |
| 2026-04-18 11:34 | 46.12095 | 5.73344 | 8216 ft | 279 kts | 225° |
| 2026-04-18 11:34 | 46.10725 | 5.71360 | 8232 ft | 279 kts | 225° |
| 2026-04-18 11:34 | 46.09370 | 5.69402 | 8199 ft | 270 kts | 225° |
| 2026-04-18 11:34 | 46.07987 | 5.67659 | 8107 ft | 260 kts | 211° |
| 2026-04-18 11:35 | 46.06335 | 5.66703 | 7936 ft | 254 kts | 194° |
| 2026-04-18 11:35 | 46.04586 | 5.66558 | 7658 ft | 251 kts | 172° |
| 2026-04-18 11:35 | 46.02891 | 5.66998 | 7315 ft | 252 kts | 163° |
| 2026-04-18 11:35 | 46.01396 | 5.68213 | 7026 ft | 247 kts | 133° |
| 2026-04-18 11:36 | 46.00548 | 5.70306 | 6756 ft | 242 kts | 103° |
| 2026-04-18 11:36 | 46.00331 | 5.72686 | 6422 ft | 241 kts | 86° |
| 2026-04-18 11:36 | 46.00792 | 5.74949 | 6205 ft | 236 kts | 62° |
| 2026-04-18 11:36 | 46.01556 | 5.77048 | 6046 ft | 235 kts | 61° |
| 2026-04-18 11:37 | 46.02336 | 5.79117 | 6031 ft | 236 kts | 57° |
| 2026-04-18 11:37 | 46.03347 | 5.80964 | 6030 ft | 234 kts | 46° |
| 2026-04-18 11:37 | 46.04485 | 5.82645 | 6048 ft | 234 kts | 44° |
| 2026-04-18 11:37 | 46.05619 | 5.84276 | 6099 ft | 233 kts | 44° |
| 2026-04-18 11:38 | 46.06781 | 5.85963 | 5774 ft | 232 kts | 45° |
| 2026-04-18 11:38 | 46.07842 | 5.87513 | 5498 ft | 205 kts | 45° |
| 2026-04-18 11:38 | 46.08808 | 5.88922 | 5277 ft | 190 kts | 45° |
| 2026-04-18 11:38 | 46.09708 | 5.90236 | 5001 ft | 182 kts | 44° |
| 2026-04-18 11:39 | 46.10582 | 5.91510 | 4761 ft | 178 kts | 46° |
| 2026-04-18 11:39 | 46.11450 | 5.92778 | 4525 ft | 172 kts | 45° |
| 2026-04-18 11:39 | 46.12261 | 5.93964 | 4289 ft | 162 kts | 45° |
| 2026-04-18 11:39 | 46.13039 | 5.95101 | 4098 ft | 160 kts | 45° |
| 2026-04-18 11:40 | 46.13822 | 5.96245 | 3884 ft | 157 kts | 45° |
| 2026-04-18 11:40 | 46.14577 | 5.97351 | 3686 ft | 157 kts | 45° |
| 2026-04-18 11:40 | 46.15336 | 5.98459 | 3477 ft | 154 kts | 45° |
| 2026-04-18 11:40 | 46.16073 | 5.99539 | 3253 ft | 148 kts | 45° |
| 2026-04-18 11:41 | 46.16798 | 6.00601 | 3077 ft | 150 kts | 45° |
| 2026-04-18 11:41 | 46.17527 | 6.01669 | 2856 ft | 148 kts | 45° |
| 2026-04-18 11:41 | 46.18242 | 6.02718 | 2680 ft | 147 kts | 45° |
| 2026-04-18 11:41 | 46.18965 | 6.03778 | 2482 ft | 149 kts | 45° |
| 2026-04-18 11:42 | 46.19693 | 6.04845 | 2305 ft | 150 kts | 46° |
| 2026-04-18 11:42 | 46.20427 | 6.05923 | 2091 ft | 151 kts | 46° |
| 2026-04-18 11:42 | 46.21162 | 6.07003 | 1880 ft | 150 kts | 46° |
| 2026-04-18 11:42 | 46.21887 | 6.08067 | 1691 ft | 147 kts | 46° |
| 2026-04-18 11:43 | 46.22598 | 6.09094 | 1506 ft | 143 kts | 46° |
| 2026-04-18 11:43 | 46.23281 | 6.10109 | 1402 ft | 132 kts | 45° |
| 2026-04-18 11:43 | 46.23685 | 6.10704 | 1381 ft | 41 kts | 45° |
| 2026-04-18 11:43 | 46.23818 | 6.10899 | 1377 ft | 16 kts | 45° |
| 2026-04-18 11:44 | 46.23859 | 6.11026 | 1380 ft | 15 kts | 105° |
| 2026-04-18 11:44 | 46.23774 | 6.11082 | 1378 ft | 14 kts | 169° |
| 2026-04-18 11:44 | 46.23685 | 6.11049 | 1376 ft | 14 kts | 223° |
| 2026-04-18 11:44 | 46.23615 | 6.10947 | 1375 ft | 14 kts | 225° |
| 2026-04-18 11:45 | 46.23554 | 6.10853 | 1376 ft | 13 kts | 225° |
| 2026-04-18 11:45 | 46.23488 | 6.10762 | 1380 ft | 13 kts | 223° |
| 2026-04-18 11:45 | 46.23428 | 6.10673 | 1381 ft | 11 kts | 226° |
| 2026-04-18 11:45 | 46.23374 | 6.10605 | 1385 ft | 10 kts | 223° |
| 2026-04-18 11:46 | 46.23327 | 6.10536 | 1386 ft | 10 kts | 226° |
| 2026-04-18 11:46 | 46.23280 | 6.10468 | 1385 ft | 9 kts | 224° |
| 2026-04-18 11:46 | 46.23232 | 6.10439 | 1390 ft | 7 kts | 184° |
| 2026-04-18 11:46 | 46.23177 | 6.10438 | 1386 ft | 9 kts | 180° |
| 2026-04-18 11:47 | 46.23170 | 6.10438 | 1389 ft | 0 kts | 180° |